This is the latest recevied weather packets stored in our database for station/object IU1OPQ-3. If no packets are shown the sender has not sent any weather packets the latest 10 day(s).
| Time | Temp. | Humidity | Pressure | Rain* | Wind** | Luminosity | Snow |
|---|---|---|---|---|---|---|---|
| 1777816801 | 17.22° C | 48% | 1017.8 hPa | 0 mm | - | - | - |
| 1777815900 | 17.22° C | 48% | 1017.7 hPa | 0 mm | - | - | - |
| 1777815001 | 17.78° C | 47% | 1017.8 hPa | 0 mm | - | - | - |
| 1777814101 | 17.78° C | 45% | 1018.1 hPa | 0 mm | - | - | - |
| 1777813200 | 17.78° C | 45% | 1018.1 hPa | 0 mm | - | - | - |
| 1777812301 | 18.33° C | 44% | 1018.4 hPa | 0 mm | - | - | - |
| 1777811400 | 18.89° C | 40% | 1018.8 hPa | 0 mm | - | - | - |
| 1777810501 | 19.44° C | 40% | 1018.5 hPa | 0 mm | - | - | - |
| 1777809601 | 18.89° C | 39% | 1018.6 hPa | 0 mm | - | - | - |
| 1777807800 | 19.44° C | 37% | 1018.8 hPa | 0 mm | - | - | - |
| 1777806901 | 19.44° C | 38% | 1018.8 hPa | 0 mm | - | - | - |
| 1777806000 | 20° C | 38% | 1018.9 hPa | 0 mm | - | - | - |
| 1777805101 | 20.56° C | 37% | 1019 hPa | 0 mm | - | - | - |
| 1777804201 | 18.89° C | 40% | 1019.1 hPa | 0 mm | - | - | - |
| 1777803301 | 19.44° C | 38% | 1018.9 hPa | 0 mm | - | - | - |
| 1777802400 | 18.89° C | 38% | 1019.2 hPa | 0 mm | - | - | - |
| 1777801500 | 18.33° C | 40% | 1019.6 hPa | 0 mm | - | - | - |
| 1777800600 | 17.22° C | 42% | 1019.4 hPa | 0 mm | - | - | - |
| 1777799700 | 16.67° C | 43% | 1019.7 hPa | 0 mm | - | - | - |
| 1777798801 | 16.67° C | 43% | 1019.3 hPa | 0 mm | - | - | - |
| 1777797901 | 16.67° C | 43% | 1019.5 hPa | 0 mm | - | - | - |
| 1777797001 | 16.67° C | 44% | 1019.3 hPa | 0 mm | - | - | - |
| 1777796101 | 16.67° C | 49% | 1019.3 hPa | 0 mm | - | - | - |
| 1777795201 | 16.67° C | 51% | 1019.2 hPa | 0 mm | - | - | - |
| 1777794301 | 16.67° C | 52% | 1019 hPa | 0 mm | - | - | - |
* Rain latest hour (hover to see other rain measurements)
** Current wind speed in m/s (hover to see current wind gust speed)